sensor_id;sensor_type;location;lat;lon;timestamp;pressure;altitude;pressure_sealevel;temperature;humidity
3206;BME280;1615;53.602;11.418;2023-05-01T00:01:10;101712.53;;;8.25;100.00
3206;BME280;1615;53.602;11.418;2023-05-01T00:03:36;101733.59;;;8.30;100.00
3206;BME280;1615;53.602;11.418;2023-05-01T00:06:02;101713.94;;;8.28;100.00
3206;BME280;1615;53.602;11.418;2023-05-01T00:08:29;101609.88;;;7.65;100.00
3206;BME280;1615;53.602;11.418;2023-05-01T00:10:54;101700.44;;;8.21;100.00
3206;BME280;1615;53.602;11.418;2023-05-01T00:13:20;101697.72;;;8.21;100.00
3206;BME280;1615;53.602;11.418;2023-05-01T00:15:48;101630.38;;;7.89;100.00
3206;BME280;1615;53.602;11.418;2023-05-01T00:18:13;101695.66;;;8.33;100.00
3206;BME280;1615;53.602;11.418;2023-05-01T00:20:39;101695.34;;;8.30;100.00
3206;BME280;1615;53.602;11.418;2023-05-01T00:23:04;101691.03;;;8.34;100.00
3206;BME280;1615;53.602;11.418;2023-05-01T00:25:29;101678.47;;;8.33;100.00
3206;BME280;1615;53.602;11.418;2023-05-01T00:27:55;101711.25;;;8.33;100.00
3206;BME280;1615;53.602;11.418;2023-05-01T00:30:21;101687.75;;;8.32;100.00
3206;BME280;1615;53.602;11.418;2023-05-01T00:32:46;101665.69;;;8.17;100.00
3206;BME280;1615;53.602;11.418;2023-05-01T00:35:11;101687.69;;;8.27;100.00
3206;BME280;1615;53.602;11.418;2023-05-01T00:37:37;101679.69;;;8.20;100.00
3206;BME280;1615;53.602;11.418;2023-05-01T00:40:03;101679.34;;;8.17;100.00
3206;BME280;1615;53.602;11.418;2023-05-01T00:42:34;101673.13;;;8.21;100.00
3206;BME280;1615;53.602;11.418;2023-05-01T00:45:00;101664.59;;;8.18;100.00
3206;BME280;1615;53.602;11.418;2023-05-01T00:47:25;101671.91;;;8.12;100.00
3206;BME280;1615;53.602;11.418;2023-05-01T00:49:51;101668.09;;;8.13;100.00
3206;BME280;1615;53.602;11.418;2023-05-01T00:52:17;101657.19;;;8.13;100.00
3206;BME280;1615;53.602;11.418;2023-05-01T00:54:42;101656.84;;;8.10;100.00
3206;BME280;1615;53.602;11.418;2023-05-01T00:57:09;101650.25;;;8.06;100.00
3206;BME280;1615;53.602;11.418;2023-05-01T00:59:35;101655.13;;;8.04;100.00
3206;BME280;1615;53.602;11.418;2023-05-01T01:02:01;101630.44;;;7.94;100.00
3206;BME280;1615;53.602;11.418;2023-05-01T01:04:27;101650.31;;;8.11;100.00
3206;BME280;1615;53.602;11.418;2023-05-01T01:07:15;101679.03;;;8.13;100.00
3206;BME280;1615;53.602;11.418;2023-05-01T01:09:58;101660.84;;;8.02;100.00
3206;BME280;1615;53.602;11.418;2023-05-01T01:12:35;101654.75;;;7.95;100.00
3206;BME280;1615;53.602;11.418;2023-05-01T01:15:17;101659.41;;;7.95;100.00
3206;BME280;1615;53.602;11.418;2023-05-01T01:20:44;101659.41;;;7.95;100.00
3206;BME280;1615;53.602;11.418;2023-05-01T01:26:19;101651.66;;;7.87;100.00
3206;BME280;1615;53.602;11.418;2023-05-01T01:32:01;101649.88;;;7.76;100.00
3206;BME280;1615;53.602;11.418;2023-05-01T01:34:33;101643.78;;;7.69;100.00
3206;BME280;1615;53.602;11.418;2023-05-01T01:37:03;101652.09;;;7.79;100.00
3206;BME280;1615;53.602;11.418;2023-05-01T01:39:45;101652.03;;;7.74;100.00
3206;BME280;1615;53.602;11.418;2023-05-01T01:42:17;101511.44;;;6.85;100.00
3206;BME280;1615;53.602;11.418;2023-05-01T01:44:53;101643.84;;;7.74;100.00
3206;BME280;1615;53.602;11.418;2023-05-01T01:47:20;101641.13;;;7.74;100.00
3206;BME280;1615;53.602;11.418;2023-05-01T01:49:50;101641.63;;;7.71;100.00
3206;BME280;1615;53.602;11.418;2023-05-01T01:52:16;101641.94;;;7.74;100.00
3206;BME280;1615;53.602;11.418;2023-05-01T01:54:54;101647.06;;;7.71;100.00
3206;BME280;1615;53.602;11.418;2023-05-01T01:57:22;101644.03;;;7.67;100.00
3206;BME280;1615;53.602;11.418;2023-05-01T01:59:49;101642.13;;;7.68;100.00
3206;BME280;1615;53.602;11.418;2023-05-01T02:02:18;101538.72;;;7.07;100.00
3206;BME280;1615;53.602;11.418;2023-05-01T02:04:44;101643.19;;;7.67;100.00
3206;BME280;1615;53.602;11.418;2023-05-01T02:07:11;101633.88;;;7.63;100.00
3206;BME280;1615;53.602;11.418;2023-05-01T02:09:39;101636.03;;;7.61;100.00
3206;BME280;1615;53.602;11.418;2023-05-01T02:12:07;101638.19;;;7.59;100.00
3206;BME280;1615;53.602;11.418;2023-05-01T02:14:33;101497.59;;;6.70;100.00
3206;BME280;1615;53.602;11.418;2023-05-01T02:17:00;101631.81;;;7.53;100.00
3206;BME280;1615;53.602;11.418;2023-05-01T02:19:26;101462.94;;;6.49;100.00
3206;BME280;1615;53.602;11.418;2023-05-01T02:21:54;101629.88;;;7.49;100.00
3206;BME280;1615;53.602;11.418;2023-05-01T02:24:23;101619.50;;;7.51;100.00
3206;BME280;1615;53.602;11.418;2023-05-01T02:26:53;101620.84;;;7.48;100.00
3206;BME280;1615;53.602;11.418;2023-05-01T02:29:19;101621.69;;;7.49;100.00
3206;BME280;1615;53.602;11.418;2023-05-01T02:31:45;101619.72;;;7.44;100.00
3206;BME280;1615;53.602;11.418;2023-05-01T02:34:10;101613.41;;;7.44;100.00
3206;BME280;1615;53.602;11.418;2023-05-01T02:36:36;101593.09;;;7.35;100.00
3206;BME280;1615;53.602;11.418;2023-05-01T02:39:02;101125.56;;;4.58;100.00
3206;BME280;1615;53.602;11.418;2023-05-01T02:41:28;101464.13;;;6.75;100.00
3206;BME280;1615;53.602;11.418;2023-05-01T02:43:59;101605.94;;;7.56;100.00
3206;BME280;1615;53.602;11.418;2023-05-01T02:46:26;101464.69;;;6.77;100.00
3206;BME280;1615;53.602;11.418;2023-05-01T02:48:53;101524.69;;;7.15;100.00
3206;BME280;1615;53.602;11.418;2023-05-01T02:51:19;101588.25;;;7.58;100.00
3206;BME280;1615;53.602;11.418;2023-05-01T02:53:45;101581.97;;;7.58;100.00
3206;BME280;1615;53.602;11.418;2023-05-01T02:56:11;101588.06;;;7.65;100.00
3206;BME280;1615;53.602;11.418;2023-05-01T02:58:37;101578.22;;;7.64;100.00
3206;BME280;1615;53.602;11.418;2023-05-01T03:01:02;101569.72;;;7.60;100.00
3206;BME280;1615;53.602;11.418;2023-05-01T03:03:28;101436.47;;;6.83;100.00
3206;BME280;1615;53.602;11.418;2023-05-01T03:05:53;101570.66;;;7.71;100.00
3206;BME280;1615;53.602;11.418;2023-05-01T03:08:18;101568.19;;;7.69;100.00
3206;BME280;1615;53.602;11.418;2023-05-01T03:10:44;101578.28;;;7.69;100.00
3206;BME280;1615;53.602;11.418;2023-05-01T03:13:10;101560.28;;;7.68;100.00
3206;BME280;1615;53.602;11.418;2023-05-01T03:15:36;101558.91;;;7.70;100.00
3206;BME280;1615;53.602;11.418;2023-05-01T03:18:02;101555.63;;;7.68;100.00
3206;BME280;1615;53.602;11.418;2023-05-01T03:20:27;101553.72;;;7.69;100.00
3206;BME280;1615;53.602;11.418;2023-05-01T03:22:53;101551.00;;;7.69;100.00
3206;BME280;1615;53.602;11.418;2023-05-01T03:25:18;101561.38;;;7.72;100.00
3206;BME280;1615;53.602;11.418;2023-05-01T03:27:43;101485.56;;;7.26;100.00
3206;BME280;1615;53.602;11.418;2023-05-01T03:30:09;101545.00;;;7.72;100.00
3206;BME280;1615;53.602;11.418;2023-05-01T03:32:34;101526.44;;;7.69;100.00
3206;BME280;1615;53.602;11.418;2023-05-01T03:35:01;101533.59;;;7.75;100.00
3206;BME280;1615;53.602;11.418;2023-05-01T03:37:27;101534.09;;;7.72;100.00
3206;BME280;1615;53.602;11.418;2023-05-01T03:39:52;101538.81;;;7.76;100.00
3206;BME280;1615;53.602;11.418;2023-05-01T03:42:18;101535.25;;;7.76;100.00
3206;BME280;1615;53.602;11.418;2023-05-01T03:44:44;101558.41;;;7.73;100.00
3206;BME280;1615;53.602;11.418;2023-05-01T03:47:09;101542.88;;;7.74;100.00
3206;BME280;1615;53.602;11.418;2023-05-01T03:49:35;101537.34;;;7.69;100.00
3206;BME280;1615;53.602;11.418;2023-05-01T03:52:00;101535.72;;;7.68;100.00
3206;BME280;1615;53.602;11.418;2023-05-01T03:54:25;101537.59;;;7.67;100.00
3206;BME280;1615;53.602;11.418;2023-05-01T03:56:51;101540.09;;;7.69;100.00
3206;BME280;1615;53.602;11.418;2023-05-01T03:59:16;101529.16;;;7.69;100.00
3206;BME280;1615;53.602;11.418;2023-05-01T04:01:42;101524.56;;;7.74;100.00
3206;BME280;1615;53.602;11.418;2023-05-01T04:04:08;101524.31;;;7.76;100.00
3206;BME280;1615;53.602;11.418;2023-05-01T04:06:33;101504.56;;;7.64;100.00
3206;BME280;1615;53.602;11.418;2023-05-01T04:08:59;101512.03;;;7.73;100.00
3206;BME280;1615;53.602;11.418;2023-05-01T04:11:25;101515.59;;;7.74;100.00
3206;BME280;1615;53.602;11.418;2023-05-01T04:13:50;101516.69;;;7.78;100.00
3206;BME280;1615;53.602;11.418;2023-05-01T04:16:15;101518.75;;;7.66;100.00
3206;BME280;1615;53.602;11.418;2023-05-01T04:18:42;101456.84;;;7.45;100.00
3206;BME280;1615;53.602;11.418;2023-05-01T04:21:07;101512.44;;;7.87;100.00
3206;BME280;1615;53.602;11.418;2023-05-01T04:23:32;101507.03;;;7.92;100.00
3206;BME280;1615;53.602;11.418;2023-05-01T04:25:58;101513.03;;;7.94;100.00
3206;BME280;1615;53.602;11.418;2023-05-01T04:28:23;101379.09;;;7.16;100.00
3206;BME280;1615;53.602;11.418;2023-05-01T04:30:48;101504.41;;;8.02;100.00
3206;BME280;1615;53.602;11.418;2023-05-01T04:33:13;101496.22;;;8.02;100.00
3206;BME280;1615;53.602;11.418;2023-05-01T04:35:40;101499.00;;;8.07;100.00
3206;BME280;1615;53.602;11.418;2023-05-01T04:38:06;101489.22;;;8.11;100.00
3206;BME280;1615;53.602;11.418;2023-05-01T04:40:32;101486.00;;;8.19;100.00
3206;BME280;1615;53.602;11.418;2023-05-01T04:42:57;101469.81;;;8.12;100.00
3206;BME280;1615;53.602;11.418;2023-05-01T04:45:22;101485.59;;;8.32;100.00
3206;BME280;1615;53.602;11.418;2023-05-01T04:47:48;101441.59;;;8.02;100.00
3206;BME280;1615;53.602;11.418;2023-05-01T04:50:13;101489.25;;;8.47;100.00
3206;BME280;1615;53.602;11.418;2023-05-01T04:52:39;101486.88;;;8.56;100.00
3206;BME280;1615;53.602;11.418;2023-05-01T04:55:04;101470.25;;;8.62;100.00
3206;BME280;1615;53.602;11.418;2023-05-01T04:57:30;101480.69;;;8.70;100.00
3206;BME280;1615;53.602;11.418;2023-05-01T04:59:56;101477.72;;;8.77;100.00
3206;BME280;1615;53.602;11.418;2023-05-01T05:02:21;101473.13;;;8.87;100.00
3206;BME280;1615;53.602;11.418;2023-05-01T05:04:46;101477.59;;;9.03;100.00
3206;BME280;1615;53.602;11.418;2023-05-01T05:07:12;101477.13;;;9.16;100.00
3206;BME280;1615;53.602;11.418;2023-05-01T05:09:37;101468.69;;;9.28;100.00
3206;BME280;1615;53.602;11.418;2023-05-01T05:12:03;101411.13;;;9.03;100.00
3206;BME280;1615;53.602;11.418;2023-05-01T05:14:29;101465.47;;;9.46;100.00
3206;BME280;1615;53.602;11.418;2023-05-01T05:16:55;101472.63;;;9.57;100.00
3206;BME280;1615;53.602;11.418;2023-05-01T05:19:20;101466.94;;;9.73;100.00
3206;BME280;1615;53.602;11.418;2023-05-01T05:21:45;101294.59;;;8.87;100.00
3206;BME280;1615;53.602;11.418;2023-05-01T05:24:11;101439.25;;;9.80;100.00
3206;BME280;1615;53.602;11.418;2023-05-01T05:26:36;101457.97;;;10.08;100.00
3206;BME280;1615;53.602;11.418;2023-05-01T05:29:02;101458.50;;;10.20;100.00
3206;BME280;1615;53.602;11.418;2023-05-01T05:31:28;101453.84;;;10.25;100.00
3206;BME280;1615;53.602;11.418;2023-05-01T05:33:53;101451.94;;;10.41;100.00
3206;BME280;1615;53.602;11.418;2023-05-01T05:36:18;101450.25;;;10.55;100.00
3206;BME280;1615;53.602;11.418;2023-05-01T05:38:44;101445.84;;;10.69;100.00
3206;BME280;1615;53.602;11.418;2023-05-01T05:41:09;101447.47;;;10.85;100.00
3206;BME280;1615;53.602;11.418;2023-05-01T05:43:34;101400.38;;;10.58;100.00
3206;BME280;1615;53.602;11.418;2023-05-01T05:46:00;101449.56;;;11.13;100.00
3206;BME280;1615;53.602;11.418;2023-05-01T05:48:25;101395.06;;;10.86;100.00
3206;BME280;1615;53.602;11.418;2023-05-01T05:50:52;101456.63;;;11.29;100.00
3206;BME280;1615;53.602;11.418;2023-05-01T05:53:18;101451.69;;;11.31;100.00
3206;BME280;1615;53.602;11.418;2023-05-01T05:55:45;101449.22;;;11.29;100.00
3206;BME280;1615;53.602;11.418;2023-05-01T05:58:11;101349.91;;;10.64;100.00
3206;BME280;1615;53.602;11.418;2023-05-01T06:00:36;101449.59;;;11.03;100.00
3206;BME280;1615;53.602;11.418;2023-05-01T06:03:01;101451.28;;;10.94;100.00
3206;BME280;1615;53.602;11.418;2023-05-01T06:05:27;101334.09;;;10.36;100.00
3206;BME280;1615;53.602;11.418;2023-05-01T06:07:52;101435.31;;;11.11;100.00
3206;BME280;1615;53.602;11.418;2023-05-01T06:10:19;101343.91;;;10.52;100.00
3206;BME280;1615;53.602;11.418;2023-05-01T06:12:44;101299.59;;;10.20;100.00
3206;BME280;1615;53.602;11.418;2023-05-01T06:15:10;101431.91;;;11.29;100.00
3206;BME280;1615;53.602;11.418;2023-05-01T06:17:37;101435.13;;;11.46;100.00
3206;BME280;1615;53.602;11.418;2023-05-01T06:20:03;101415.44;;;11.29;100.00
3206;BME280;1615;53.602;11.418;2023-05-01T06:22:30;101430.78;;;11.35;100.00
3206;BME280;1615;53.602;11.418;2023-05-01T06:24:55;101428.00;;;11.45;100.00
3206;BME280;1615;53.602;11.418;2023-05-01T06:27:21;101426.34;;;11.49;100.00
3206;BME280;1615;53.602;11.418;2023-05-01T06:29:46;101436.72;;;11.62;100.00
3206;BME280;1615;53.602;11.418;2023-05-01T06:32:12;101430.59;;;11.75;100.00
3206;BME280;1615;53.602;11.418;2023-05-01T06:34:37;101431.94;;;11.82;100.00
3206;BME280;1615;53.602;11.418;2023-05-01T06:37:02;101428.25;;;11.97;100.00
3206;BME280;1615;53.602;11.418;2023-05-01T06:39:29;101387.97;;;11.82;100.00
3206;BME280;1615;53.602;11.418;2023-05-01T06:41:55;101405.16;;;11.98;100.00
3206;BME280;1615;53.602;11.418;2023-05-01T06:44:20;101420.00;;;11.97;100.00
3206;BME280;1615;53.602;11.418;2023-05-01T06:46:46;101423.00;;;12.00;100.00
3206;BME280;1615;53.602;11.418;2023-05-01T06:49:11;101392.59;;;11.87;100.00
3206;BME280;1615;53.602;11.418;2023-05-01T06:51:36;101406.97;;;12.07;100.00
3206;BME280;1615;53.602;11.418;2023-05-01T06:54:02;101396.00;;;12.07;100.00
3206;BME280;1615;53.602;11.418;2023-05-01T06:56:27;101416.38;;;12.35;100.00
3206;BME280;1615;53.602;11.418;2023-05-01T06:58:52;101404.63;;;12.53;100.00
3206;BME280;1615;53.602;11.418;2023-05-01T07:01:18;101294.16;;;11.94;99.58
3206;BME280;1615;53.602;11.418;2023-05-01T07:03:43;101400.56;;;12.74;99.16
3206;BME280;1615;53.602;11.418;2023-05-01T07:06:09;101404.31;;;12.83;99.33
3206;BME280;1615;53.602;11.418;2023-05-01T07:08:34;101362.66;;;12.71;97.62
3206;BME280;1615;53.602;11.418;2023-05-01T07:11:00;101296.84;;;12.27;98.51
3206;BME280;1615;53.602;11.418;2023-05-01T07:13:25;101396.97;;;13.02;98.41
3206;BME280;1615;53.602;11.418;2023-05-01T07:15:50;101257.06;;;12.20;97.32
3206;BME280;1615;53.602;11.418;2023-05-01T07:18:16;101375.16;;;12.82;96.73
3206;BME280;1615;53.602;11.418;2023-05-01T07:20:41;101383.88;;;12.89;97.36
3206;BME280;1615;53.602;11.418;2023-05-01T07:23:07;101322.63;;;12.60;98.22
3206;BME280;1615;53.602;11.418;2023-05-01T07:25:34;101336.81;;;12.67;98.11
3206;BME280;1615;53.602;11.418;2023-05-01T07:28:01;101378.09;;;13.14;97.71
3206;BME280;1615;53.602;11.418;2023-05-01T07:30:28;101310.75;;;12.83;96.85
3206;BME280;1615;53.602;11.418;2023-05-01T07:32:55;101390.47;;;13.35;97.22
3206;BME280;1615;53.602;11.418;2023-05-01T07:35:21;101367.78;;;13.43;97.20
3206;BME280;1615;53.602;11.418;2023-05-01T07:37:48;101366.28;;;13.50;98.01
3206;BME280;1615;53.602;11.418;2023-05-01T07:40:15;101365.56;;;13.63;97.58
3206;BME280;1615;53.602;11.418;2023-05-01T07:42:41;101361.22;;;13.76;96.32
3206;BME280;1615;53.602;11.418;2023-05-01T07:45:06;101353.38;;;13.83;94.68
3206;BME280;1615;53.602;11.418;2023-05-01T07:47:33;101358.53;;;13.89;92.76
3206;BME280;1615;53.602;11.418;2023-05-01T07:49:58;101355.28;;;14.01;91.71
3206;BME280;1615;53.602;11.418;2023-05-01T07:52:23;101348.75;;;14.10;89.66
3206;BME280;1615;53.602;11.418;2023-05-01T07:54:49;101346.09;;;14.24;89.34
3206;BME280;1615;53.602;11.418;2023-05-01T07:57:15;101344.34;;;14.28;88.01
3206;BME280;1615;53.602;11.418;2023-05-01T07:59:40;101347.22;;;14.36;85.91
3206;BME280;1615;53.602;11.418;2023-05-01T08:02:06;101350.22;;;14.40;85.76
3206;BME280;1615;53.602;11.418;2023-05-01T08:04:31;101339.78;;;14.50;81.48
3206;BME280;1615;53.602;11.418;2023-05-01T08:06:56;101331.13;;;14.57;77.57
3206;BME280;1615;53.602;11.418;2023-05-01T08:09:22;101335.59;;;14.66;76.56
3206;BME280;1615;53.602;11.418;2023-05-01T08:11:47;101264.69;;;14.40;74.92
3206;BME280;1615;53.602;11.418;2023-05-01T08:14:12;101312.91;;;14.83;75.66
3206;BME280;1615;53.602;11.418;2023-05-01T08:16:37;101313.47;;;15.07;73.93
3206;BME280;1615;53.602;11.418;2023-05-01T08:19:03;101326.47;;;15.20;71.87
3206;BME280;1615;53.602;11.418;2023-05-01T08:21:28;101318.88;;;15.25;71.17
3206;BME280;1615;53.602;11.418;2023-05-01T08:23:54;101312.78;;;15.15;69.74
3206;BME280;1615;53.602;11.418;2023-05-01T08:26:20;101320.19;;;15.28;69.06
3206;BME280;1615;53.602;11.418;2023-05-01T08:28:45;101300.47;;;15.21;68.91
3206;BME280;1615;53.602;11.418;2023-05-01T08:31:11;101323.25;;;15.40;70.17
3206;BME280;1615;53.602;11.418;2023-05-01T08:33:37;101324.28;;;15.44;69.04
3206;BME280;1615;53.602;11.418;2023-05-01T08:36:06;101323.66;;;15.47;68.53
3206;BME280;1615;53.602;11.418;2023-05-01T08:38:32;101315.25;;;15.52;66.46
3206;BME280;1615;53.602;11.418;2023-05-01T08:40:57;101322.53;;;15.48;64.58
3206;BME280;1615;53.602;11.418;2023-05-01T08:43:25;101318.69;;;15.57;63.91
3206;BME280;1615;53.602;11.418;2023-05-01T08:45:52;101302.69;;;15.68;64.66
3206;BME280;1615;53.602;11.418;2023-05-01T08:48:19;101304.69;;;15.76;64.85
3206;BME280;1615;53.602;11.418;2023-05-01T08:50:46;101305.44;;;15.90;64.47
3206;BME280;1615;53.602;11.418;2023-05-01T08:53:14;101292.84;;;16.06;64.67
3206;BME280;1615;53.602;11.418;2023-05-01T08:55:43;101145.13;;;15.24;60.93
3206;BME280;1615;53.602;11.418;2023-05-01T08:58:10;101292.22;;;16.09;60.42
3206;BME280;1615;53.602;11.418;2023-05-01T09:00:38;101264.81;;;15.99;60.85
3206;BME280;1615;53.602;11.418;2023-05-01T09:03:05;101296.84;;;16.22;57.69
3206;BME280;1615;53.602;11.418;2023-05-01T09:05:32;101292.94;;;16.23;54.44
3206;BME280;1615;53.602;11.418;2023-05-01T09:07:58;101238.34;;;15.76;51.60
3206;BME280;1615;53.602;11.418;2023-05-01T09:10:23;101240.56;;;15.96;52.85
3206;BME280;1615;53.602;11.418;2023-05-01T09:12:54;101280.16;;;16.35;52.81
3206;BME280;1615;53.602;11.418;2023-05-01T09:15:20;101276.44;;;16.40;52.78
3206;BME280;1615;53.602;11.418;2023-05-01T09:17:46;101281.53;;;16.46;53.77
3206;BME280;1615;53.602;11.418;2023-05-01T09:20:12;101276.50;;;16.57;53.85
3206;BME280;1615;53.602;11.418;2023-05-01T09:22:38;101265.44;;;16.57;52.39
3206;BME280;1615;53.602;11.418;2023-05-01T09:25:03;101209.63;;;16.24;52.98
3206;BME280;1615;53.602;11.418;2023-05-01T09:27:33;101193.06;;;16.33;52.59
3206;BME280;1615;53.602;11.418;2023-05-01T09:29:59;101290.53;;;16.60;50.80
3206;BME280;1615;53.602;11.418;2023-05-01T09:32:25;101271.38;;;16.81;52.03
3206;BME280;1615;53.602;11.418;2023-05-01T09:35:06;101182.06;;;16.50;51.23
3206;BME280;1615;53.602;11.418;2023-05-01T09:37:33;101249.19;;;16.64;49.62
3206;BME280;1615;53.602;11.418;2023-05-01T09:40:09;101169.59;;;16.30;50.80
3206;BME280;1615;53.602;11.418;2023-05-01T09:42:40;101230.31;;;16.83;50.41
3206;BME280;1615;53.602;11.418;2023-05-01T09:45:11;101233.94;;;16.92;50.34
3206;BME280;1615;53.602;11.418;2023-05-01T09:47:38;101167.53;;;16.53;50.47
3206;BME280;1615;53.602;11.418;2023-05-01T09:50:04;101139.06;;;16.44;50.32
3206;BME280;1615;53.602;11.418;2023-05-01T09:52:29;101217.47;;;17.12;50.04
3206;BME280;1615;53.602;11.418;2023-05-01T09:55:16;101210.78;;;17.05;48.72
3206;BME280;1615;53.602;11.418;2023-05-01T09:57:42;101216.00;;;17.15;48.63
3206;BME280;1615;53.602;11.418;2023-05-01T10:00:09;101151.78;;;16.79;48.39
3206;BME280;1615;53.602;11.418;2023-05-01T10:02:35;101206.53;;;16.99;48.76
3206;BME280;1615;53.602;11.418;2023-05-01T10:05:01;101221.88;;;17.22;48.27
3206;BME280;1615;53.602;11.418;2023-05-01T10:07:27;101197.91;;;17.34;46.36
3206;BME280;1615;53.602;11.418;2023-05-01T10:09:53;101193.97;;;17.35;42.39
3206;BME280;1615;53.602;11.418;2023-05-01T10:12:24;101059.78;;;16.65;40.97
3206;BME280;1615;53.602;11.418;2023-05-01T10:14:54;101198.91;;;17.47;41.89
3206;BME280;1615;53.602;11.418;2023-05-01T10:17:19;101190.84;;;17.62;42.17
3206;BME280;1615;53.602;11.418;2023-05-01T10:19:46;101196.75;;;17.61;41.96
3206;BME280;1615;53.602;11.418;2023-05-01T10:22:13;101190.88;;;17.71;43.39
3206;BME280;1615;53.602;11.418;2023-05-01T10:24:39;101142.47;;;17.34;42.15
3206;BME280;1615;53.602;11.418;2023-05-01T10:27:08;101182.03;;;17.69;42.60
3206;BME280;1615;53.602;11.418;2023-05-01T10:29:35;101190.38;;;17.69;42.51
3206;BME280;1615;53.602;11.418;2023-05-01T10:32:04;101121.09;;;17.35;40.97
3206;BME280;1615;53.602;11.418;2023-05-01T10:34:34;101168.84;;;17.66;41.93
3206;BME280;1615;53.602;11.418;2023-05-01T10:37:08;101163.44;;;17.78;41.87
3206;BME280;1615;53.602;11.418;2023-05-01T10:39:37;101157.38;;;17.84;41.59
3206;BME280;1615;53.602;11.418;2023-05-01T10:42:07;101156.22;;;17.85;41.42
3206;BME280;1615;53.602;11.418;2023-05-01T10:44:35;101155.03;;;17.95;41.69
3206;BME280;1615;53.602;11.418;2023-05-01T10:50:05;101134.88;;;18.15;40.39
3206;BME280;1615;53.602;11.418;2023-05-01T10:55:48;101141.72;;;18.17;39.73
3206;BME280;1615;53.602;11.418;2023-05-01T11:03:53;101131.22;;;18.23;39.02
3206;BME280;1615;53.602;11.418;2023-05-01T11:06:19;101129.78;;;18.17;38.25
3206;BME280;1615;53.602;11.418;2023-05-01T11:08:44;101124.31;;;18.37;39.67
3206;BME280;1615;53.602;11.418;2023-05-01T11:13:59;101001.59;;;17.74;39.08
3206;BME280;1615;53.602;11.418;2023-05-01T11:19:02;101106.91;;;18.49;39.11
3206;BME280;1615;53.602;11.418;2023-05-01T11:21:31;101046.59;;;18.08;38.51
3206;BME280;1615;53.602;11.418;2023-05-01T11:24:16;101101.16;;;18.54;39.43
3206;BME280;1615;53.602;11.418;2023-05-01T11:26:43;101104.25;;;18.52;39.30
3206;BME280;1615;53.602;11.418;2023-05-01T11:29:09;101093.53;;;18.51;39.74
3206;BME280;1615;53.602;11.418;2023-05-01T11:31:36;101100.00;;;18.55;39.02
3206;BME280;1615;53.602;11.418;2023-05-01T11:34:02;101094.44;;;18.55;39.03
3206;BME280;1615;53.602;11.418;2023-05-01T11:36:28;101095.53;;;18.62;38.97
3206;BME280;1615;53.602;11.418;2023-05-01T11:38:58;101083.63;;;18.62;39.55
3206;BME280;1615;53.602;11.418;2023-05-01T11:41:25;101089.44;;;18.69;39.53
3206;BME280;1615;53.602;11.418;2023-05-01T11:43:52;101079.91;;;18.90;39.16
3206;BME280;1615;53.602;11.418;2023-05-01T11:46:28;101071.56;;;19.11;38.20
3206;BME280;1615;53.602;11.418;2023-05-01T11:48:58;101062.63;;;19.05;36.42
3206;BME280;1615;53.602;11.418;2023-05-01T11:51:24;101061.25;;;19.11;37.51
3206;BME280;1615;53.602;11.418;2023-05-01T11:54:01;101065.19;;;19.10;38.23
3206;BME280;1615;53.602;11.418;2023-05-01T11:56:28;101063.06;;;19.28;37.56
3206;BME280;1615;53.602;11.418;2023-05-01T11:58:55;101056.09;;;19.22;37.70
3206;BME280;1615;53.602;11.418;2023-05-01T12:01:32;101047.75;;;19.22;37.27
3206;BME280;1615;53.602;11.418;2023-05-01T12:03:58;101044.53;;;19.32;37.45
3206;BME280;1615;53.602;11.418;2023-05-01T12:06:37;101051.28;;;19.55;37.56
3206;BME280;1615;53.602;11.418;2023-05-01T12:09:09;101041.00;;;19.55;37.57
3206;BME280;1615;53.602;11.418;2023-05-01T12:11:35;101033.44;;;19.44;35.34
3206;BME280;1615;53.602;11.418;2023-05-01T12:14:02;100982.13;;;19.09;36.30
3206;BME280;1615;53.602;11.418;2023-05-01T12:16:28;101028.81;;;19.48;37.18
3206;BME280;1615;53.602;11.418;2023-05-01T12:18:54;101032.28;;;19.57;37.45
3206;BME280;1615;53.602;11.418;2023-05-01T12:21:19;101031.81;;;19.67;36.87
3206;BME280;1615;53.602;11.418;2023-05-01T12:23:45;101006.78;;;19.55;35.80
3206;BME280;1615;53.602;11.418;2023-05-01T12:26:15;101014.44;;;19.58;36.08
3206;BME280;1615;53.602;11.418;2023-05-01T12:28:55;101021.63;;;19.71;37.20
3206;BME280;1615;53.602;11.418;2023-05-01T12:31:21;101012.59;;;19.74;37.31
3206;BME280;1615;53.602;11.418;2023-05-01T12:34:04;101022.88;;;19.85;37.73
3206;BME280;1615;53.602;11.418;2023-05-01T12:36:32;100991.25;;;19.78;38.28
3206;BME280;1615;53.602;11.418;2023-05-01T12:39:01;101001.25;;;19.79;36.60
3206;BME280;1615;53.602;11.418;2023-05-01T12:41:34;100996.00;;;19.53;36.58
3206;BME280;1615;53.602;11.418;2023-05-01T12:44:00;100954.63;;;19.40;37.64
3206;BME280;1615;53.602;11.418;2023-05-01T12:46:26;100994.28;;;19.85;38.15
3206;BME280;1615;53.602;11.418;2023-05-01T12:48:52;100995.88;;;19.86;37.13
3206;BME280;1615;53.602;11.418;2023-05-01T12:51:19;100993.34;;;19.81;37.70
3206;BME280;1615;53.602;11.418;2023-05-01T12:53:45;100956.56;;;19.75;37.72
3206;BME280;1615;53.602;11.418;2023-05-01T12:56:20;100988.44;;;20.14;37.02
3206;BME280;1615;53.602;11.418;2023-05-01T12:58:47;100984.03;;;20.13;37.14
3206;BME280;1615;53.602;11.418;2023-05-01T13:01:22;100988.78;;;20.24;36.96
3206;BME280;1615;53.602;11.418;2023-05-01T13:03:49;100973.22;;;20.23;36.86
3206;BME280;1615;53.602;11.418;2023-05-01T13:06:15;100970.31;;;20.32;37.34
3206;BME280;1615;53.602;11.418;2023-05-01T13:08:40;100969.59;;;20.35;36.80
3206;BME280;1615;53.602;11.418;2023-05-01T13:11:16;100918.16;;;19.93;37.20
3206;BME280;1615;53.602;11.418;2023-05-01T13:13:43;100865.91;;;19.47;37.90
3206;BME280;1615;53.602;11.418;2023-05-01T13:16:13;100970.72;;;19.94;37.39
3206;BME280;1615;53.602;11.418;2023-05-01T13:18:50;100899.09;;;19.67;37.50
3206;BME280;1615;53.602;11.418;2023-05-01T13:21:23;100946.44;;;20.19;37.26
3206;BME280;1615;53.602;11.418;2023-05-01T13:23:56;100960.38;;;20.46;36.60
3206;BME280;1615;53.602;11.418;2023-05-01T13:26:27;100848.25;;;19.94;36.48